Time,TemperatureF,DewpointF,PressureIn,WindDirection,WindDirectionDegrees,WindSpeedMPH,WindSpeedGustMPH,Humidity,HourlyPrecipIn,Conditions,Clouds,dailyrainin,SoftwareType,DateUTC
2013-06-16 00:01:00,63.7,53.4,30.01,SSW,203,0.0,0.0,69,0.00,,,0.00,WUHU216HW,2013-06-16 04:01:00,
2013-06-16 00:06:00,63.7,53.8,30.01,SSW,203,0.0,0.0,70,0.00,,,0.00,WUHU216HW,2013-06-16 04:06:00,
2013-06-16 00:11:00,63.7,53.8,30.01,SSW,203,0.0,0.0,70,0.00,,,0.00,WUHU216HW,2013-06-16 04:11:00,
2013-06-16 00:16:00,63.7,53.8,30.01,SSW,203,0.0,0.0,70,0.00,,,0.00,WUHU216HW,2013-06-16 04:16:00,
2013-06-16 00:21:00,63.7,53.8,30.01,SSW,203,0.0,0.0,70,0.00,,,0.00,WUHU216HW,2013-06-16 04:21:00,
2013-06-16 00:26:00,63.7,54.9,30.01,SSW,203,0.0,0.0,73,0.00,,,0.00,WUHU216HW,2013-06-16 04:26:00,
2013-06-16 00:31:00,63.4,53.8,30.01,SSW,203,0.0,0.0,71,0.00,,,0.00,WUHU216HW,2013-06-16 04:31:00,
2013-06-16 00:36:00,63.2,53.6,30.01,SSW,203,0.0,0.0,71,0.00,,,0.00,WUHU216HW,2013-06-16 04:36:00,
2013-06-16 00:41:00,63.4,53.8,30.01,SSW,203,0.0,0.0,71,0.00,,,0.00,WUHU216HW,2013-06-16 04:41:00,
2013-06-16 00:46:00,63.4,54.2,30.01,SSW,203,0.0,0.0,72,0.00,,,0.00,WUHU216HW,2013-06-16 04:46:00,
2013-06-16 00:51:00,63.5,54.4,30.01,SSW,203,0.0,0.0,72,0.00,,,0.00,WUHU216HW,2013-06-16 04:51:00,
2013-06-16 00:56:00,63.7,54.5,30.00,SSW,203,0.0,0.0,72,0.00,,,0.00,WUHU216HW,2013-06-16 04:56:00,
2013-06-16 01:01:00,63.9,54.7,30.00,SSW,203,0.0,0.2,72,0.00,,,0.00,WUHU216HW,2013-06-16 05:01:00,
2013-06-16 01:06:00,63.9,54.7,30.00,SSW,203,0.0,0.2,72,0.00,,,0.00,WUHU216HW,2013-06-16 05:06:00,
2013-06-16 01:11:00,63.7,54.2,30.00,SSW,203,0.0,0.0,71,0.00,,,0.00,WUHU216HW,2013-06-16 05:11:00,
2013-06-16 01:16:00,63.7,54.2,30.00,SSW,203,0.0,0.0,71,0.00,,,0.00,WUHU216HW,2013-06-16 05:16:00,
2013-06-16 01:21:00,63.5,54.4,30.00,SSW,203,0.0,0.0,72,0.00,,,0.00,WUHU216HW,2013-06-16 05:21:00,
2013-06-16 01:26:00,63.4,54.2,30.00,SSW,203,0.0,0.0,72,0.00,,,0.00,WUHU216HW,2013-06-16 05:26:00,
2013-06-16 01:31:00,63.4,54.2,30.00,SSW,203,0.0,0.0,72,0.00,,,0.00,WUHU216HW,2013-06-16 05:31:00,
2013-06-16 01:36:00,63.4,54.2,30.00,SSW,203,0.0,0.0,72,0.00,,,0.00,WUHU216HW,2013-06-16 05:36:00,
2013-06-16 01:41:00,63.4,54.2,30.00,SSW,203,0.7,0.7,72,0.00,,,0.00,WUHU216HW,2013-06-16 05:41:00,
2013-06-16 01:46:00,63.4,54.5,30.00,SSW,203,0.0,0.9,73,0.00,,,0.00,WUHU216HW,2013-06-16 05:46:00,
2013-06-16 01:51:00,63.0,54.2,30.00,SSW,203,0.4,1.1,73,0.00,,,0.00,WUHU216HW,2013-06-16 05:51:00,
2013-06-16 01:56:00,62.8,54.4,30.00,SW,225,0.2,1.1,74,0.00,,,0.00,WUHU216HW,2013-06-16 05:56:00,
2013-06-16 02:02:00,62.3,53.8,30.00,SSW,203,2.2,3.1,74,0.00,,,0.00,WUHU216HW,2013-06-16 06:02:00,
2013-06-16 02:07:00,62.1,54.5,30.00,SSW,203,0.0,3.1,76,0.00,,,0.00,WUHU216HW,2013-06-16 06:07:00,
2013-06-16 02:12:00,61.7,53.7,30.00,WSW,248,0.0,1.1,75,0.00,,,0.00,WUHU216HW,2013-06-16 06:12:00,
2013-06-16 02:17:00,61.7,53.4,30.00,SW,225,0.7,1.1,74,0.00,,,0.00,WUHU216HW,2013-06-16 06:17:00,
2013-06-16 02:22:00,61.7,53.4,30.00,SW,225,1.3,2.0,74,0.00,,,0.00,WUHU216HW,2013-06-16 06:22:00,
2013-06-16 02:27:00,61.7,53.7,30.00,WSW,248,0.0,2.0,75,0.00,,,0.00,WUHU216HW,2013-06-16 06:27:00,
2013-06-16 02:32:00,61.7,53.7,30.00,SW,225,0.9,1.3,75,0.00,,,0.00,WUHU216HW,2013-06-16 06:32:00,
2013-06-16 02:37:00,61.6,53.6,30.00,SSW,203,0.4,0.9,75,0.00,,,0.00,WUHU216HW,2013-06-16 06:37:00,
2013-06-16 02:42:00,61.6,53.6,30.00,SW,225,0.2,0.4,75,0.00,,,0.00,WUHU216HW,2013-06-16 06:42:00,
2013-06-16 02:47:00,61.6,53.9,30.00,WSW,248,0.2,0.4,76,0.00,,,0.00,WUHU216HW,2013-06-16 06:47:00,
2013-06-16 02:53:00,61.6,53.6,30.00,SW,225,0.4,0.9,75,0.00,,,0.00,WUHU216HW,2013-06-16 06:53:00,
2013-06-16 02:58:00,61.6,53.6,30.00,SW,225,0.0,1.1,75,0.00,,,0.00,WUHU216HW,2013-06-16 06:58:00,
2013-06-16 03:03:00,61.9,54.3,30.00,SSW,203,1.3,1.3,76,0.00,,,0.00,WUHU216HW,2013-06-16 07:03:00,
2013-06-16 03:08:00,61.9,53.9,29.99,SSW,203,1.1,1.3,75,0.00,,,0.00,WUHU216HW,2013-06-16 07:08:00,
2013-06-16 03:14:00,62.1,54.5,29.99,SW,225,0.0,1.3,76,0.00,,,0.00,WUHU216HW,2013-06-16 07:14:00,
2013-06-16 03:19:00,62.1,54.5,29.99,SW,225,0.0,1.3,76,0.00,,,0.00,WUHU216HW,2013-06-16 07:19:00,
2013-06-16 03:24:00,62.3,54.5,29.99,WSW,248,0.0,0.2,76,0.00,,,0.00,WUHU216HW,2013-06-16 07:24:00,
2013-06-16 03:29:00,62.3,54.2,29.98,SSW,203,0.9,0.9,75,0.00,,,0.00,WUHU216HW,2013-06-16 07:29:00,
2013-06-16 03:34:00,62.3,54.2,29.98,SW,225,0.7,1.1,75,0.00,,,0.00,WUHU216HW,2013-06-16 07:34:00,
2013-06-16 03:39:00,62.5,54.7,29.98,SW,225,0.0,1.8,76,0.00,,,0.00,WUHU216HW,2013-06-16 07:39:00,
2013-06-16 03:44:00,62.5,54.4,29.98,SW,225,0.0,1.8,75,0.00,,,0.00,WUHU216HW,2013-06-16 07:44:00,
2013-06-16 03:49:00,62.5,54.4,29.98,South,180,1.1,1.1,75,0.00,,,0.00,WUHU216HW,2013-06-16 07:49:00,
2013-06-16 03:54:00,62.5,54.4,29.98,SW,225,1.8,1.8,75,0.00,,,0.00,WUHU216HW,2013-06-16 07:54:00,
2013-06-16 03:59:00,62.5,55.1,29.98,SSW,203,0.0,2.5,77,0.00,,,0.00,WUHU216HW,2013-06-16 07:59:00,
2013-06-16 04:04:00,62.5,54.7,29.98,WNW,293,2.5,2.5,76,0.00,,,0.00,WUHU216HW,2013-06-16 08:04:00,
2013-06-16 04:09:00,62.5,54.4,29.98,SSW,203,0.9,2.5,75,0.00,,,0.00,WUHU216HW,2013-06-16 08:09:00,
2013-06-16 04:14:00,62.5,54.7,29.98,SSW,203,0.0,2.0,76,0.00,,,0.00,WUHU216HW,2013-06-16 08:14:00,
2013-06-16 04:19:00,62.5,54.4,29.98,SSW,203,0.4,0.4,75,0.00,,,0.00,WUHU216HW,2013-06-16 08:19:00,
2013-06-16 04:24:00,62.5,54.4,29.98,SSW,203,0.2,1.1,75,0.00,,,0.00,WUHU216HW,2013-06-16 08:24:00,
2013-06-16 04:29:00,62.3,54.2,29.98,West,270,0.0,1.1,75,0.00,,,0.00,WUHU216HW,2013-06-16 08:29:00,
2013-06-16 04:34:00,62.5,54.4,29.98,SSW,203,0.0,1.1,75,0.00,,,0.00,WUHU216HW,2013-06-16 08:34:00,
2013-06-16 04:39:00,62.5,54.4,29.98,WSW,248,0.4,1.1,75,0.00,,,0.00,WUHU216HW,2013-06-16 08:39:00,
2013-06-16 04:44:00,62.3,54.5,29.98,WSW,248,0.0,0.4,76,0.00,,,0.00,WUHU216HW,2013-06-16 08:44:00,
2013-06-16 04:49:00,62.3,54.5,29.98,SW,225,1.1,1.1,76,0.00,,,0.00,WUHU216HW,2013-06-16 08:49:00,
2013-06-16 04:54:00,62.5,54.4,29.98,SSW,203,0.4,1.1,75,0.00,,,0.00,WUHU216HW,2013-06-16 08:54:00,
2013-06-16 04:59:00,62.5,54.4,29.98,SW,225,0.0,1.1,75,0.00,,,0.00,WUHU216HW,2013-06-16 08:59:00,
2013-06-16 05:04:00,62.5,54.4,29.98,SSW,203,0.9,1.3,75,0.00,,,0.00,WUHU216HW,2013-06-16 09:04:00,
2013-06-16 05:09:00,62.5,54.4,29.98,SW,225,0.7,1.3,75,0.00,,,0.00,WUHU216HW,2013-06-16 09:09:00,
2013-06-16 05:14:00,62.5,54.4,29.98,South,180,2.7,2.7,75,0.00,,,0.00,WUHU216HW,2013-06-16 09:14:00,
2013-06-16 05:19:00,62.6,54.9,29.99,SSW,203,1.1,3.4,76,0.00,,,0.00,WUHU216HW,2013-06-16 09:19:00,
2013-06-16 05:24:00,62.6,54.5,29.98,SSW,203,2.7,3.4,75,0.00,,,0.00,WUHU216HW,2013-06-16 09:24:00,
2013-06-16 05:30:00,62.6,54.9,29.99,SW,225,0.4,2.7,76,0.00,,,0.00,WUHU216HW,2013-06-16 09:30:00,
2013-06-16 05:35:00,62.6,54.9,29.99,SW,225,0.2,1.3,76,0.00,,,0.00,WUHU216HW,2013-06-16 09:35:00,
2013-06-16 05:41:00,62.6,54.9,29.99,SW,225,1.1,1.3,76,0.00,,,0.00,WUHU216HW,2013-06-16 09:41:00,
2013-06-16 05:46:00,62.6,54.9,29.99,SSW,203,0.2,2.5,76,0.00,,,0.00,WUHU216HW,2013-06-16 09:46:00,
2013-06-16 05:51:00,62.5,54.7,29.99,SSW,203,1.3,2.5,76,0.00,,,0.00,WUHU216HW,2013-06-16 09:51:00,
2013-06-16 05:55:00,62.6,54.9,29.99,South,180,0.4,2.5,76,0.00,,,0.00,WUHU216HW,2013-06-16 09:55:00,
2013-06-16 06:00:00,62.6,54.9,29.99,SSW,203,1.8,2.5,76,0.00,,,0.00,WUHU216HW,2013-06-16 10:00:00,
2013-06-16 06:06:00,62.6,54.9,29.99,South,180,2.0,2.7,76,0.00,,,0.00,WUHU216HW,2013-06-16 10:06:00,
2013-06-16 06:11:00,62.6,54.9,29.99,SW,225,1.8,2.7,76,0.00,,,0.00,WUHU216HW,2013-06-16 10:11:00,
2013-06-16 06:16:00,62.8,55.1,29.99,SW,225,0.4,1.8,76,0.00,,,0.00,WUHU216HW,2013-06-16 10:16:00,
2013-06-16 06:21:00,63.0,55.6,29.99,WNW,293,0.2,2.0,77,0.00,,,0.00,WUHU216HW,2013-06-16 10:21:00,
2013-06-16 06:26:00,62.8,55.4,29.99,SW,225,1.6,2.0,77,0.00,,,0.00,WUHU216HW,2013-06-16 10:26:00,
2013-06-16 06:31:00,63.0,55.6,29.98,West,270,0.7,2.0,77,0.00,,,0.00,WUHU216HW,2013-06-16 10:31:00,
2013-06-16 06:36:00,63.0,55.6,29.99,SW,225,0.4,2.5,77,0.00,,,0.00,WUHU216HW,2013-06-16 10:36:00,
2013-06-16 06:41:00,63.2,55.8,29.99,SSW,203,2.5,2.5,77,0.00,,,0.00,WUHU216HW,2013-06-16 10:41:00,
2013-06-16 06:46:00,63.2,55.8,29.99,South,180,1.1,2.9,77,0.00,,,0.00,WUHU216HW,2013-06-16 10:46:00,
2013-06-16 06:51:00,63.2,55.8,29.98,SW,225,2.5,2.9,77,0.00,,,0.00,WUHU216HW,2013-06-16 10:51:00,
2013-06-16 06:56:00,63.4,56.0,29.98,WSW,248,0.4,4.7,77,0.00,,,0.00,WUHU216HW,2013-06-16 10:56:00,
2013-06-16 07:01:00,63.4,56.0,29.99,SW,225,2.5,4.7,77,0.00,,,0.00,WUHU216HW,2013-06-16 11:01:00,
2013-06-16 07:06:00,63.4,56.0,29.99,WSW,248,3.4,3.4,77,0.00,,,0.00,WUHU216HW,2013-06-16 11:06:00,
2013-06-16 07:11:00,63.5,56.9,29.99,SSW,203,3.6,3.6,79,0.00,,,0.00,WUHU216HW,2013-06-16 11:11:00,
2013-06-16 07:16:00,63.5,56.9,29.98,SW,225,2.9,3.6,79,0.00,,,0.00,WUHU216HW,2013-06-16 11:16:00,
2013-06-16 07:21:00,63.5,56.9,29.98,SSW,203,2.9,3.6,79,0.00,,,0.00,WUHU216HW,2013-06-16 11:21:00,
2013-06-16 07:26:00,63.7,57.1,29.98,SSW,203,2.7,5.4,79,0.00,,,0.00,WUHU216HW,2013-06-16 11:26:00,
2013-06-16 07:31:00,63.9,57.2,29.98,South,180,0.4,5.4,79,0.00,,,0.00,WUHU216HW,2013-06-16 11:31:00,
2013-06-16 07:36:00,63.9,57.6,29.98,SW,225,0.9,5.1,80,0.00,,,0.00,WUHU216HW,2013-06-16 11:36:00,
2013-06-16 07:41:00,64.3,58.0,29.98,SSW,203,2.7,4.9,80,0.00,,,0.00,WUHU216HW,2013-06-16 11:41:00,
2013-06-16 07:46:00,64.6,58.3,29.97,WSW,248,2.7,5.6,80,0.00,,,0.00,WUHU216HW,2013-06-16 11:46:00,
2013-06-16 07:51:00,65.0,58.3,29.97,WSW,248,3.8,5.6,79,0.00,,,0.00,WUHU216HW,2013-06-16 11:51:00,
2013-06-16 07:56:00,65.2,58.2,29.97,WSW,248,1.1,4.9,78,0.00,,,0.00,WUHU216HW,2013-06-16 11:56:00,
2013-06-16 08:01:00,65.5,58.5,29.97,WSW,248,0.7,4.0,78,0.00,,,0.00,WUHU216HW,2013-06-16 12:01:00,
2013-06-16 08:06:00,65.9,58.5,29.97,SSW,203,0.9,3.1,77,0.00,,,0.00,WUHU216HW,2013-06-16 12:06:00,
2013-06-16 08:11:00,66.4,58.6,29.97,SSW,203,3.1,4.7,76,0.00,,,0.00,WUHU216HW,2013-06-16 12:11:00,
2013-06-16 08:17:00,66.6,59.1,29.97,South,180,2.2,6.3,77,0.00,,,0.00,WUHU216HW,2013-06-16 12:17:00,
2013-06-16 08:22:00,67.1,59.7,29.97,SSW,203,1.6,6.3,77,0.00,,,0.00,WUHU216HW,2013-06-16 12:22:00,
2013-06-16 08:27:00,67.3,59.1,29.97,WSW,248,0.7,2.7,75,0.00,,,0.00,WUHU216HW,2013-06-16 12:27:00,
2013-06-16 08:32:00,67.5,59.3,29.97,WSW,248,2.7,2.7,75,0.00,,,0.00,WUHU216HW,2013-06-16 12:32:00,
2013-06-16 08:37:00,67.7,59.5,29.97,SSW,203,1.1,3.1,75,0.00,,,0.00,WUHU216HW,2013-06-16 12:37:00,
2013-06-16 08:42:00,68.0,59.9,29.97,South,180,3.4,3.4,75,0.00,,,0.00,WUHU216HW,2013-06-16 12:42:00,
2013-06-16 08:47:00,68.4,60.2,29.97,WSW,248,1.8,4.7,75,0.00,,,0.00,WUHU216HW,2013-06-16 12:47:00,
2013-06-16 08:52:00,68.9,60.3,29.97,WSW,248,2.7,4.7,74,0.00,,,0.00,WUHU216HW,2013-06-16 12:52:00,
2013-06-16 08:57:00,69.5,60.4,29.97,South,180,3.4,4.7,73,0.00,,,0.00,WUHU216HW,2013-06-16 12:57:00,
2013-06-16 09:02:00,69.7,60.6,29.97,SSW,203,4.5,4.5,73,0.00,,,0.00,WUHU216HW,2013-06-16 13:02:00,
2013-06-16 09:07:00,69.7,60.6,29.97,West,270,3.4,4.5,73,0.00,,,0.00,WUHU216HW,2013-06-16 13:07:00,
2013-06-16 09:12:00,70.0,60.9,29.97,SSW,203,4.0,4.0,73,0.00,,,0.00,WUHU216HW,2013-06-16 13:12:00,
2013-06-16 09:18:00,70.2,61.1,29.97,SSE,158,2.9,4.0,73,0.00,,,0.00,WUHU216HW,2013-06-16 13:18:00,
2013-06-16 09:23:00,70.4,61.3,29.97,SSW,203,1.8,5.4,73,0.00,,,0.00,WUHU216HW,2013-06-16 13:23:00,
2013-06-16 09:28:00,70.6,61.5,29.96,SW,225,1.3,5.4,73,0.00,,,0.00,WUHU216HW,2013-06-16 13:28:00,
2013-06-16 09:33:00,70.7,61.7,29.96,SSW,203,2.5,4.7,73,0.00,,,0.00,WUHU216HW,2013-06-16 13:33:00,
2013-06-16 09:38:00,70.9,61.4,29.96,SSW,203,4.7,4.7,72,0.00,,,0.00,WUHU216HW,2013-06-16 13:38:00,
2013-06-16 09:43:00,71.3,61.4,29.96,South,180,2.0,5.8,71,0.00,,,0.00,WUHU216HW,2013-06-16 13:43:00,
2013-06-16 09:48:00,71.3,61.4,29.96,SSE,158,1.1,5.8,71,0.00,,,0.00,WUHU216HW,2013-06-16 13:48:00,
2013-06-16 09:53:00,71.3,61.0,29.96,SSW,203,0.9,6.0,70,0.00,,,0.00,WUHU216HW,2013-06-16 13:53:00,
2013-06-16 09:58:00,71.6,61.4,29.96,SSW,203,6.5,6.5,70,0.00,,,0.00,WUHU216HW,2013-06-16 13:58:00,
2013-06-16 10:03:00,72.4,62.5,29.95,SW,225,1.3,6.5,71,0.00,,,0.00,WUHU216HW,2013-06-16 14:03:00,
2013-06-16 10:08:00,72.9,62.6,29.95,SSW,203,0.4,6.7,70,0.00,,,0.00,WUHU216HW,2013-06-16 14:08:00,
2013-06-16 10:13:00,73.6,62.5,29.95,SSE,158,6.3,6.7,68,0.00,,,0.00,WUHU216HW,2013-06-16 14:13:00,
2013-06-16 10:18:00,74.3,62.6,29.95,SW,225,3.4,6.3,67,0.00,,,0.00,WUHU216HW,2013-06-16 14:18:00,
2013-06-16 10:23:00,75.2,63.1,29.94,SW,225,5.4,5.8,66,0.00,,,0.00,WUHU216HW,2013-06-16 14:23:00,
2013-06-16 10:28:00,76.1,63.1,29.94,South,180,5.4,5.8,64,0.00,,,0.00,WUHU216HW,2013-06-16 14:28:00,
2013-06-16 10:33:00,76.9,63.3,29.94,South,180,5.1,6.7,63,0.00,,,0.00,WUHU216HW,2013-06-16 14:33:00,
2013-06-16 10:38:00,77.6,64.0,29.94,SW,225,4.5,6.7,63,0.00,,,0.00,WUHU216HW,2013-06-16 14:38:00,
2013-06-16 10:43:00,78.3,65.1,29.94,WSW,248,5.4,6.0,64,0.00,,,0.00,WUHU216HW,2013-06-16 14:43:00,
2013-06-16 10:48:00,78.7,64.2,29.94,SW,225,6.0,6.0,61,0.00,,,0.00,WUHU216HW,2013-06-16 14:48:00,
2013-06-16 10:53:00,78.7,64.2,29.94,SW,225,2.0,7.2,61,0.00,,,0.00,WUHU216HW,2013-06-16 14:53:00,
2013-06-16 10:58:00,78.5,65.3,29.94,SSW,203,4.9,7.2,64,0.00,,,0.00,WUHU216HW,2013-06-16 14:58:00,
2013-06-16 11:03:00,78.3,65.1,29.94,SW,225,3.4,6.3,64,0.00,,,0.00,WUHU216HW,2013-06-16 15:03:00,
2013-06-16 11:08:00,78.3,65.1,29.94,South,180,4.3,6.9,64,0.00,,,0.00,WUHU216HW,2013-06-16 15:08:00,
2013-06-16 11:13:00,77.9,64.8,29.94,SSW,203,6.9,7.6,64,0.00,,,0.00,WUHU216HW,2013-06-16 15:13:00,
2013-06-16 11:18:00,77.4,64.7,29.94,SSW,203,5.8,7.6,65,0.00,,,0.00,WUHU216HW,2013-06-16 15:18:00,
2013-06-16 11:23:00,77.4,65.2,29.93,WSW,248,1.1,5.8,66,0.00,,,0.00,WUHU216HW,2013-06-16 15:23:00,
2013-06-16 11:28:00,77.2,65.0,29.93,South,180,2.9,5.4,66,0.00,,,0.00,WUHU216HW,2013-06-16 15:28:00,
2013-06-16 11:33:00,77.6,65.4,29.93,SSW,203,1.1,6.5,66,0.00,,,0.00,WUHU216HW,2013-06-16 15:33:00,
2013-06-16 11:38:00,77.9,65.3,29.92,SW,225,6.0,6.5,65,0.00,,,0.00,WUHU216HW,2013-06-16 15:38:00,
2013-06-16 11:43:00,78.1,65.8,29.92,South,180,9.6,9.6,66,0.00,,,0.00,WUHU216HW,2013-06-16 15:43:00,
2013-06-16 11:48:00,78.1,65.8,29.92,WSW,248,4.5,9.6,66,0.00,,,0.00,WUHU216HW,2013-06-16 15:48:00,
2013-06-16 11:53:00,78.7,66.3,29.92,SW,225,4.7,6.0,66,0.00,,,0.00,WUHU216HW,2013-06-16 15:53:00,
2013-06-16 11:58:00,79.6,66.8,29.92,WSW,248,5.4,9.2,65,0.00,,,0.00,WUHU216HW,2013-06-16 15:58:00,
2013-06-16 12:03:00,80.3,67.0,29.92,SSW,203,4.5,9.2,64,0.00,,,0.00,WUHU216HW,2013-06-16 16:03:00,
2013-06-16 12:08:00,81.4,67.5,29.92,West,270,9.4,11.0,63,0.00,,,0.00,WUHU216HW,2013-06-16 16:08:00,
2013-06-16 12:13:00,82.3,67.0,29.92,WSW,248,5.1,11.0,60,0.00,,,0.00,WUHU216HW,2013-06-16 16:13:00,
2013-06-16 12:18:00,82.4,66.6,29.92,SSW,203,8.5,11.0,59,0.00,,,0.00,WUHU216HW,2013-06-16 16:18:00,
2013-06-16 12:23:00,82.3,66.4,29.92,NNW,338,0.7,11.0,59,0.00,,,0.00,WUHU216HW,2013-06-16 16:23:00,
2013-06-16 12:28:00,81.7,66.0,29.92,NNW,338,2.7,5.6,59,0.00,,,0.00,WUHU216HW,2013-06-16 16:28:00,
2013-06-16 12:33:00,81.4,66.2,29.92,SSW,203,2.2,5.4,60,0.00,,,0.00,WUHU216HW,2013-06-16 16:33:00,
2013-06-16 12:38:00,81.0,66.3,29.91,South,180,5.8,5.8,61,0.00,,,0.00,WUHU216HW,2013-06-16 16:38:00,
2013-06-16 12:43:00,80.5,66.2,29.91,WNW,293,4.0,7.6,62,0.00,,,0.00,WUHU216HW,2013-06-16 16:43:00,
2013-06-16 12:48:00,80.1,65.9,29.91,West,270,3.1,7.6,62,0.00,,,0.00,WUHU216HW,2013-06-16 16:48:00,
2013-06-16 12:53:00,79.9,66.3,29.92,West,270,3.4,5.4,63,0.00,,,0.00,WUHU216HW,2013-06-16 16:53:00,
2013-06-16 12:58:00,79.4,66.2,29.92,West,270,1.6,5.4,64,0.00,,,0.00,WUHU216HW,2013-06-16 16:58:00,
2013-06-16 13:03:00,79.0,65.8,29.92,SSW,203,5.1,5.1,64,0.00,,,0.00,WUHU216HW,2013-06-16 17:03:00,
2013-06-16 13:08:00,78.8,66.1,29.92,SSW,203,4.7,6.3,65,0.00,,,0.00,WUHU216HW,2013-06-16 17:08:00,
2013-06-16 13:13:00,78.7,66.3,29.91,SSW,203,3.4,6.3,66,0.00,,,0.00,WUHU216HW,2013-06-16 17:13:00,
2013-06-16 13:18:00,78.7,66.3,29.91,West,270,3.8,4.0,66,0.00,,,0.00,WUHU216HW,2013-06-16 17:18:00,
2013-06-16 13:23:00,78.5,66.2,29.91,SSW,203,2.9,4.0,66,0.00,,,0.00,WUHU216HW,2013-06-16 17:23:00,
2013-06-16 13:28:00,78.7,66.3,29.91,WSW,248,4.3,4.3,66,0.00,,,0.00,WUHU216HW,2013-06-16 17:28:00,
2013-06-16 13:33:00,78.7,66.3,29.91,West,270,2.2,4.3,66,0.00,,,0.00,WUHU216HW,2013-06-16 17:33:00,
2013-06-16 13:38:00,78.8,66.5,29.91,WNW,293,3.8,4.3,66,0.00,,,0.00,WUHU216HW,2013-06-16 17:38:00,
2013-06-16 13:46:00,78.8,67.0,29.91,West,270,2.2,4.3,67,0.00,,,0.00,WUHU216HW,2013-06-16 17:46:00,
2013-06-16 13:51:00,78.8,66.5,29.91,SSE,158,1.8,6.9,66,0.00,,,0.00,WUHU216HW,2013-06-16 17:51:00,
2013-06-16 13:58:00,79.0,67.2,29.91,ESE,113,2.7,6.9,67,0.00,,,0.00,WUHU216HW,2013-06-16 17:58:00,
2013-06-16 14:03:00,78.8,67.0,29.91,West,270,2.7,6.3,67,0.00,,,0.00,WUHU216HW,2013-06-16 18:03:00,
2013-06-16 14:08:00,78.7,66.8,29.91,SSW,203,7.6,7.6,67,0.00,,,0.00,WUHU216HW,2013-06-16 18:08:00,
2013-06-16 14:13:00,78.7,66.8,29.91,SSW,203,6.3,7.6,67,0.00,,,0.00,WUHU216HW,2013-06-16 18:13:00,
2013-06-16 14:18:00,78.7,67.2,29.91,WSW,248,4.0,6.3,68,0.00,,,0.00,WUHU216HW,2013-06-16 18:18:00,
2013-06-16 14:23:00,78.3,66.4,29.91,SSW,203,5.1,6.9,67,0.00,,,0.00,WUHU216HW,2013-06-16 18:23:00,
2013-06-16 14:30:00,78.1,66.2,29.90,SW,225,3.1,7.2,67,0.00,,,0.00,WUHU216HW,2013-06-16 18:30:00,
2013-06-16 14:35:00,77.8,66.3,29.91,SSW,203,3.4,7.2,68,0.00,,,0.00,WUHU216HW,2013-06-16 18:35:00,
2013-06-16 14:40:00,77.6,66.6,29.90,NNW,338,2.5,6.7,69,0.00,,,0.00,WUHU216HW,2013-06-16 18:40:00,
2013-06-16 14:45:00,77.4,67.0,29.91,South,180,2.0,6.7,70,0.00,,,0.00,WUHU216HW,2013-06-16 18:45:00,
2013-06-16 14:50:00,77.0,66.2,29.90,SSW,203,2.5,6.3,69,0.00,,,0.00,WUHU216HW,2013-06-16 18:50:00,
2013-06-16 14:55:00,76.7,65.8,29.90,SW,225,6.0,8.1,69,0.00,,,0.00,WUHU216HW,2013-06-16 18:55:00,
2013-06-16 15:00:00,76.3,65.9,29.91,WNW,293,4.0,8.1,70,0.00,,,0.00,WUHU216HW,2013-06-16 19:00:00,
2013-06-16 15:05:00,76.3,65.4,29.90,SW,225,3.1,8.3,69,0.00,,,0.00,WUHU216HW,2013-06-16 19:05:00,
2013-06-16 15:10:00,76.3,65.9,29.89,WSW,248,3.6,8.3,70,0.00,,,0.00,WUHU216HW,2013-06-16 19:10:00,
2013-06-16 15:15:00,76.0,65.5,29.89,SSW,203,7.6,7.6,70,0.00,,,0.00,WUHU216HW,2013-06-16 19:15:00,
2013-06-16 15:20:00,75.6,65.2,29.89,West,270,2.5,7.6,70,0.00,,,0.00,WUHU216HW,2013-06-16 19:20:00,
2013-06-16 15:25:00,75.6,64.7,29.89,WSW,248,6.5,6.5,69,0.00,,,0.00,WUHU216HW,2013-06-16 19:25:00,
2013-06-16 15:30:00,76.0,65.1,29.88,SSW,203,9.2,9.2,69,0.00,,,0.00,WUHU216HW,2013-06-16 19:30:00,
2013-06-16 15:35:00,76.0,65.1,29.88,SW,225,1.8,9.2,69,0.00,,,0.00,WUHU216HW,2013-06-16 19:35:00,
2013-06-16 15:40:00,76.0,65.5,29.89,West,270,2.2,7.2,70,0.00,,,0.00,WUHU216HW,2013-06-16 19:40:00,
2013-06-16 15:45:00,76.1,65.7,29.88,South,180,4.9,4.9,70,0.00,,,0.00,WUHU216HW,2013-06-16 19:45:00,
2013-06-16 15:50:00,76.5,66.4,29.89,WSW,248,1.8,4.9,71,0.00,,,0.00,WUHU216HW,2013-06-16 19:50:00,
2013-06-16 15:55:00,76.7,66.2,29.89,NW,315,0.4,4.7,70,0.00,,,0.00,WUHU216HW,2013-06-16 19:55:00,
2013-06-16 16:00:00,77.0,66.2,29.89,SW,225,3.4,4.5,69,0.00,,,0.00,WUHU216HW,2013-06-16 20:00:00,
2013-06-16 16:05:00,77.6,67.1,29.89,South,180,1.1,3.4,70,0.00,,,0.00,WUHU216HW,2013-06-16 20:05:00,
2013-06-16 16:10:00,77.9,66.5,29.89,SSW,203,4.3,4.3,68,0.00,,,0.00,WUHU216HW,2013-06-16 20:10:00,
2013-06-16 16:15:00,77.9,66.1,29.89,WSW,248,2.7,4.3,67,0.00,,,0.00,WUHU216HW,2013-06-16 20:15:00,
2013-06-16 16:20:00,77.9,66.1,29.89,South,180,5.4,5.4,67,0.00,,,0.00,WUHU216HW,2013-06-16 20:20:00,
2013-06-16 16:26:00,77.9,66.5,29.89,WSW,248,2.2,5.4,68,0.00,,,0.00,WUHU216HW,2013-06-16 20:26:00,
2013-06-16 16:31:00,77.8,65.9,29.89,WNW,293,1.8,3.6,67,0.00,,,0.00,WUHU216HW,2013-06-16 20:31:00,
2013-06-16 16:36:00,77.8,66.3,29.89,WSW,248,2.9,3.6,68,0.00,,,0.00,WUHU216HW,2013-06-16 20:36:00,
2013-06-16 16:41:00,78.1,66.2,29.89,NW,315,0.9,3.1,67,0.00,,,0.00,WUHU216HW,2013-06-16 20:41:00,
2013-06-16 16:46:00,78.1,66.7,29.89,South,180,3.6,6.3,68,0.00,,,0.00,WUHU216HW,2013-06-16 20:46:00,
2013-06-16 16:51:00,78.1,66.7,29.89,SW,225,2.9,8.1,68,0.00,,,0.00,WUHU216HW,2013-06-16 20:51:00,
2013-06-16 16:56:00,78.1,66.2,29.89,WSW,248,1.6,8.1,67,0.00,,,0.00,WUHU216HW,2013-06-16 20:56:00,
2013-06-16 17:01:00,78.1,66.2,29.89,South,180,2.5,3.1,67,0.00,,,0.00,WUHU216HW,2013-06-16 21:01:00,
2013-06-16 17:06:00,78.1,66.7,29.89,ESE,113,4.0,4.0,68,0.00,,,0.00,WUHU216HW,2013-06-16 21:06:00,
2013-06-16 17:11:00,78.3,66.9,29.89,NW,315,2.0,4.0,68,0.00,,,0.00,WUHU216HW,2013-06-16 21:11:00,
2013-06-16 17:16:00,78.5,66.6,29.89,WNW,293,1.6,4.5,67,0.00,,,0.00,WUHU216HW,2013-06-16 21:16:00,
2013-06-16 17:21:00,78.5,67.1,29.89,SSW,203,2.2,4.5,68,0.00,,,0.00,WUHU216HW,2013-06-16 21:21:00,
2013-06-16 17:26:00,78.8,67.3,29.89,WNW,293,0.2,3.4,68,0.00,,,0.00,WUHU216HW,2013-06-16 21:26:00,
2013-06-16 17:31:00,78.8,67.0,29.90,NW,315,0.0,2.9,67,0.00,,,0.00,WUHU216HW,2013-06-16 21:31:00,
2013-06-16 17:36:00,78.8,67.3,29.90,WNW,293,0.2,3.6,68,0.00,,,0.00,WUHU216HW,2013-06-16 21:36:00,
2013-06-16 17:41:00,78.7,67.2,29.90,SSE,158,1.1,3.6,68,0.00,,,0.00,WUHU216HW,2013-06-16 21:41:00,
2013-06-16 17:46:00,78.7,67.2,29.90,WSW,248,0.0,1.1,68,0.00,,,0.00,WUHU216HW,2013-06-16 21:46:00,
2013-06-16 17:51:00,78.5,67.1,29.90,NE,45,0.2,1.1,68,0.00,,,0.00,WUHU216HW,2013-06-16 21:51:00,
2013-06-16 17:56:00,78.5,67.1,29.90,NNW,338,0.4,0.4,68,0.00,,,0.00,WUHU216HW,2013-06-16 21:56:00,
2013-06-16 18:01:00,78.3,66.4,29.90,NNW,338,0.2,0.4,67,0.00,,,0.00,WUHU216HW,2013-06-16 22:01:00,
2013-06-16 18:06:00,78.3,66.0,29.89,NE,45,2.0,2.0,66,0.00,,,0.00,WUHU216HW,2013-06-16 22:06:00,
2013-06-16 18:11:00,78.3,64.3,29.89,North,0,2.2,2.9,62,0.00,,,0.00,WUHU216HW,2013-06-16 22:11:00,
2013-06-16 18:17:00,78.5,64.0,29.90,ENE,68,0.7,2.9,61,0.00,,,0.00,WUHU216HW,2013-06-16 22:17:00,
2013-06-16 18:22:00,78.5,63.5,29.90,NNE,23,0.4,2.5,60,0.00,,,0.00,WUHU216HW,2013-06-16 22:22:00,
2013-06-16 18:27:00,78.5,63.5,29.90,NNW,338,0.9,2.5,60,0.00,,,0.00,WUHU216HW,2013-06-16 22:27:00,
2013-06-16 18:32:00,78.5,64.0,29.90,WNW,293,1.1,1.1,61,0.00,,,0.00,WUHU216HW,2013-06-16 22:32:00,
2013-06-16 18:37:00,78.1,63.6,29.90,NNW,338,1.6,1.6,61,0.00,,,0.00,WUHU216HW,2013-06-16 22:37:00,
2013-06-16 18:42:00,78.1,63.6,29.90,NNW,338,0.2,1.6,61,0.00,,,0.00,WUHU216HW,2013-06-16 22:42:00,
2013-06-16 18:47:00,77.9,63.9,29.90,SSE,158,0.9,1.1,62,0.00,,,0.00,WUHU216HW,2013-06-16 22:47:00,
2013-06-16 18:52:00,77.8,63.7,29.90,North,0,0.0,1.1,62,0.00,,,0.00,WUHU216HW,2013-06-16 22:52:00,
2013-06-16 18:58:00,77.8,63.7,29.90,NNW,338,0.4,0.9,62,0.00,,,0.00,WUHU216HW,2013-06-16 22:58:00,
2013-06-16 19:06:00,77.8,63.7,29.90,North,0,0.4,0.7,62,0.00,,,0.00,WUHU216HW,2013-06-16 23:06:00,
2013-06-16 19:12:00,77.6,64.0,29.90,South,180,1.3,1.3,63,0.00,,,0.00,WUHU216HW,2013-06-16 23:12:00,
2013-06-16 19:17:00,77.6,64.0,29.90,WSW,248,1.1,1.3,63,0.00,,,0.00,WUHU216HW,2013-06-16 23:17:00,
2013-06-16 19:22:00,77.6,64.0,29.90,WSW,248,1.1,1.3,63,0.00,,,0.00,WUHU216HW,2013-06-16 23:22:00,
2013-06-16 19:28:00,77.4,64.3,29.90,SSW,203,1.1,1.8,64,0.00,,,0.00,WUHU216HW,2013-06-16 23:28:00,
2013-06-16 19:33:00,77.4,63.8,29.90,SW,225,0.7,2.9,63,0.00,,,0.00,WUHU216HW,2013-06-16 23:33:00,
2013-06-16 19:39:00,77.4,63.8,29.90,WNW,293,1.8,3.4,63,0.00,,,0.00,WUHU216HW,2013-06-16 23:39:00,
2013-06-16 19:44:00,77.4,64.3,29.90,SSW,203,2.7,3.4,64,0.00,,,0.00,WUHU216HW,2013-06-16 23:44:00,
2013-06-16 19:49:00,77.0,63.9,29.90,SW,225,2.5,3.4,64,0.00,,,0.00,WUHU216HW,2013-06-16 23:49:00,
2013-06-16 19:54:00,76.9,64.2,29.90,SW,225,3.8,4.0,65,0.00,,,0.00,WUHU216HW,2013-06-16 23:54:00,
2013-06-16 19:59:00,76.7,64.0,29.91,SSW,203,1.1,4.0,65,0.00,,,0.00,WUHU216HW,2013-06-16 23:59:00,
2013-06-16 20:04:00,76.3,63.6,29.91,West,270,1.8,4.3,65,0.00,,,0.00,WUHU216HW,2013-06-17 00:04:00,
2013-06-16 20:09:00,76.1,63.5,29.91,SSE,158,0.7,4.3,65,0.00,,,0.00,WUHU216HW,2013-06-17 00:09:00,
2013-06-16 20:14:00,76.0,63.4,29.91,South,180,1.1,3.6,65,0.00,,,0.00,WUHU216HW,2013-06-17 00:14:00,
2013-06-16 20:19:00,75.8,63.2,29.91,SSW,203,0.4,3.4,65,0.00,,,0.00,WUHU216HW,2013-06-17 00:19:00,
2013-06-16 20:24:00,76.0,62.9,29.91,SW,225,0.9,3.4,64,0.00,,,0.00,WUHU216HW,2013-06-17 00:24:00,
2013-06-16 20:29:00,75.8,62.7,29.91,WSW,248,1.1,2.9,64,0.00,,,0.00,WUHU216HW,2013-06-17 00:29:00,
2013-06-16 20:34:00,75.6,62.6,29.91,WNW,293,1.8,2.9,64,0.00,,,0.00,WUHU216HW,2013-06-17 00:34:00,
2013-06-16 20:39:00,75.2,62.2,29.91,WSW,248,0.0,1.8,64,0.00,,,0.00,WUHU216HW,2013-06-17 00:39:00,
2013-06-16 20:45:00,75.1,62.5,29.91,SW,225,0.4,0.9,65,0.00,,,0.00,WUHU216HW,2013-06-17 00:45:00,
2013-06-16 20:50:00,74.9,62.3,29.91,WSW,248,0.7,1.8,65,0.00,,,0.00,WUHU216HW,2013-06-17 00:50:00,
2013-06-16 20:55:00,74.9,61.8,29.91,WNW,293,0.2,2.7,64,0.00,,,0.00,WUHU216HW,2013-06-17 00:55:00,
2013-06-16 21:00:00,74.7,61.7,29.92,West,270,0.4,2.7,64,0.00,,,0.00,WUHU216HW,2013-06-17 01:00:00,
2013-06-16 21:05:00,74.7,61.7,29.92,SW,225,1.1,1.8,64,0.00,,,0.00,WUHU216HW,2013-06-17 01:05:00,
2013-06-16 21:10:00,74.7,61.7,29.92,West,270,1.6,1.8,64,0.00,,,0.00,WUHU216HW,2013-06-17 01:10:00,
2013-06-16 21:17:00,74.5,61.6,29.92,SSW,203,0.4,1.8,64,0.00,,,0.00,WUHU216HW,2013-06-17 01:17:00,
2013-06-16 21:22:00,74.3,61.8,29.92,SW,225,0.0,1.8,65,0.00,,,0.00,WUHU216HW,2013-06-17 01:22:00,
2013-06-16 21:27:00,74.2,61.7,29.92,SW,225,0.0,1.1,65,0.00,,,0.00,WUHU216HW,2013-06-17 01:27:00,
2013-06-16 21:32:00,74.2,61.7,29.92,West,270,0.0,0.4,65,0.00,,,0.00,WUHU216HW,2013-06-17 01:32:00,
2013-06-16 21:37:00,74.2,61.7,29.92,SW,225,0.2,0.4,65,0.00,,,0.00,WUHU216HW,2013-06-17 01:37:00,
2013-06-16 21:42:00,74.0,61.5,29.92,SSW,203,0.7,1.8,65,0.00,,,0.00,WUHU216HW,2013-06-17 01:42:00,
2013-06-16 21:47:00,74.0,61.5,29.93,SW,225,1.1,1.8,65,0.00,,,0.00,WUHU216HW,2013-06-17 01:47:00,
2013-06-16 21:52:00,74.0,61.5,29.93,SSW,203,0.9,1.8,65,0.00,,,0.00,WUHU216HW,2013-06-17 01:52:00,
2013-06-16 21:57:00,74.0,61.5,29.93,South,180,1.1,1.6,65,0.00,,,0.00,WUHU216HW,2013-06-17 01:57:00,
2013-06-16 22:02:00,74.0,61.5,29.93,SSW,203,0.4,1.6,65,0.00,,,0.00,WUHU216HW,2013-06-17 02:02:00,
2013-06-16 22:07:00,73.8,61.8,29.93,SW,225,0.2,1.8,66,0.00,,,0.00,WUHU216HW,2013-06-17 02:07:00,
2013-06-16 22:12:00,73.4,61.4,29.93,WSW,248,0.2,1.8,66,0.00,,,0.00,WUHU216HW,2013-06-17 02:12:00,
2013-06-16 22:18:00,73.1,61.0,29.93,WSW,248,0.4,0.7,66,0.00,,,0.00,WUHU216HW,2013-06-17 02:18:00,
2013-06-16 22:23:00,72.9,60.8,29.93,SSW,203,0.0,0.9,66,0.00,,,0.00,WUHU216HW,2013-06-17 02:23:00,
2013-06-16 22:28:00,72.9,61.3,29.93,WNW,293,0.0,0.9,67,0.00,,,0.00,WUHU216HW,2013-06-17 02:28:00,
2013-06-16 22:33:00,72.7,61.1,29.94,SW,225,1.8,1.8,67,0.00,,,0.00,WUHU216HW,2013-06-17 02:33:00,
2013-06-16 22:38:00,72.7,61.1,29.93,WSW,248,0.0,1.8,67,0.00,,,0.00,WUHU216HW,2013-06-17 02:38:00,
2013-06-16 22:43:00,72.4,61.7,29.94,WSW,248,0.0,0.4,69,0.00,,,0.00,WUHU216HW,2013-06-17 02:43:00,
2013-06-16 22:49:00,72.0,61.3,29.94,WSW,248,0.0,0.0,69,0.00,,,0.00,WUHU216HW,2013-06-17 02:49:00,
2013-06-16 22:55:00,71.6,60.5,29.93,SW,225,0.0,0.4,68,0.00,,,0.00,WUHU216HW,2013-06-17 02:55:00,
2013-06-16 23:00:00,71.5,60.3,29.93,SW,225,0.4,1.6,68,0.00,,,0.00,WUHU216HW,2013-06-17 03:00:00,
2013-06-16 23:05:00,71.5,60.8,29.93,SSW,203,1.8,2.0,69,0.00,,,0.00,WUHU216HW,2013-06-17 03:05:00,
2013-06-16 23:10:00,71.5,60.3,29.93,SSW,203,1.8,2.0,68,0.00,,,0.00,WUHU216HW,2013-06-17 03:10:00,
2013-06-16 23:15:00,71.5,60.3,29.92,WSW,248,1.8,3.4,68,0.00,,,0.00,WUHU216HW,2013-06-17 03:15:00,
2013-06-16 23:21:00,71.5,60.8,29.92,NW,315,0.0,3.4,69,0.00,,,0.00,WUHU216HW,2013-06-17 03:21:00,
2013-06-16 23:26:00,71.3,61.0,29.92,NW,315,0.0,1.1,70,0.00,,,0.00,WUHU216HW,2013-06-17 03:26:00,
2013-06-16 23:31:00,71.1,60.8,29.92,West,270,0.4,0.7,70,0.00,,,0.00,WUHU216HW,2013-06-17 03:31:00,
2013-06-16 23:39:00,70.9,60.7,29.92,SSW,203,3.8,3.8,70,0.00,,,0.00,WUHU216HW,2013-06-17 03:39:00,
2013-06-16 23:44:00,71.1,60.8,29.92,West,270,0.2,5.4,70,0.00,,,0.00,WUHU216HW,2013-06-17 03:44:00,
2013-06-16 23:50:00,71.3,60.6,29.92,SW,225,0.7,5.4,69,0.00,,,0.00,WUHU216HW,2013-06-17 03:50:00,
2013-06-16 23:56:00,71.3,60.6,29.92,South,180,0.9,3.4,69,0.00,,,0.00,WUHU216HW,2013-06-17 03:56:00,